createdAt,value
2018-02-09T00:01:06.394Z,54.43
2018-02-09T00:03:32.155Z,58.03
2018-02-09T00:05:57.903Z,58.00
2018-02-09T00:08:23.670Z,57.20
2018-02-09T00:10:49.410Z,57.77
2018-02-09T00:13:15.170Z,59.00
2018-02-09T00:15:40.923Z,59.43
2018-02-09T00:18:07.239Z,58.03
2018-02-09T00:20:33.035Z,58.42
2018-02-09T00:22:58.788Z,57.50
2018-02-09T00:25:24.542Z,57.70
2018-02-09T00:27:50.304Z,56.10
2018-02-09T00:30:16.042Z,58.60
2018-02-09T00:32:41.814Z,60.03
2018-02-09T00:35:07.559Z,60.97
2018-02-09T00:37:33.339Z,63.17
2018-02-09T00:39:59.083Z,60.80
2018-02-09T00:42:24.833Z,57.80
2018-02-09T00:44:50.588Z,57.13
2018-02-09T00:47:16.366Z,54.77
2018-02-09T00:49:42.114Z,57.40
2018-02-09T00:52:07.859Z,52.97
2018-02-09T00:54:33.628Z,56.07
2018-02-09T00:56:59.374Z,56.87
2018-02-09T00:59:25.131Z,56.37
2018-02-09T01:01:50.878Z,57.67
2018-02-09T01:04:16.659Z,55.43
2018-02-09T01:06:42.410Z,56.43
2018-02-09T01:09:08.184Z,59.60
2018-02-09T01:11:33.938Z,57.47
2018-02-09T01:13:59.715Z,59.20
2018-02-09T01:16:25.606Z,57.87
2018-02-09T01:18:51.369Z,57.97
2018-02-09T01:21:17.140Z,56.90
2018-02-09T01:23:42.894Z,59.17
2018-02-09T01:26:08.646Z,57.77
2018-02-09T01:28:34.414Z,59.87
2018-02-09T01:31:00.176Z,60.80
2018-02-09T01:33:25.927Z,59.60
2018-02-09T01:35:51.678Z,59.00
2018-02-09T01:38:17.442Z,58.87
2018-02-09T01:40:43.202Z,57.63
2018-02-09T01:43:08.963Z,58.23
2018-02-09T01:45:34.722Z,57.67
2018-02-09T01:48:00.467Z,59.80
2018-02-09T01:50:26.229Z,58.70
2018-02-09T01:52:51.994Z,60.83
2018-02-09T01:55:17.756Z,61.17
2018-02-09T01:57:43.497Z,64.73
2018-02-09T02:00:09.274Z,62.80
2018-02-09T02:02:35.027Z,65.70
2018-02-09T02:05:00.786Z,60.63
2018-02-09T02:07:26.547Z,63.30
2018-02-09T02:09:52.320Z,62.87
2018-02-09T02:12:18.088Z,64.87
2018-02-09T02:14:43.867Z,63.60
2018-02-09T02:17:09.611Z,62.47
2018-02-09T02:19:35.361Z,62.20
2018-02-09T02:22:01.114Z,64.43
2018-02-09T02:24:26.867Z,65.73
2018-02-09T02:26:52.622Z,64.23
2018-02-09T02:29:18.388Z,62.53
2018-02-09T02:31:44.150Z,61.10
2018-02-09T02:34:09.903Z,60.77
2018-02-09T02:36:35.678Z,58.67
2018-02-09T02:39:08.443Z,59.63
2018-02-09T02:41:34.199Z,59.55
2018-02-09T02:43:59.956Z,61.37
2018-02-09T02:46:25.720Z,60.20
2018-02-09T02:48:51.462Z,58.83
2018-02-09T02:51:17.226Z,62.80
2018-02-09T02:53:42.983Z,62.63
2018-02-09T02:56:08.753Z,63.87
2018-02-09T02:58:34.497Z,64.37
2018-02-09T03:01:00.262Z,64.47
2018-02-09T03:03:26.023Z,64.37
2018-02-09T03:05:51.799Z,65.07
2018-02-09T03:08:17.550Z,64.00
2018-02-09T03:10:43.318Z,64.90
2018-02-09T03:13:09.071Z,63.93
2018-02-09T03:15:34.821Z,63.60
2018-02-09T03:18:00.583Z,61.40
2018-02-09T03:20:26.332Z,61.23
2018-02-09T03:22:52.098Z,62.23
2018-02-09T03:25:17.854Z,63.87
2018-02-09T03:27:43.604Z,65.03
2018-02-09T03:30:09.351Z,61.37
2018-02-09T03:32:35.121Z,62.17
2018-02-09T03:35:00.865Z,62.87
2018-02-09T03:37:26.656Z,61.70
2018-02-09T03:39:52.410Z,63.27
2018-02-09T03:42:18.173Z,63.13
2018-02-09T03:44:43.922Z,60.63
2018-02-09T03:47:09.690Z,61.67
2018-02-09T03:49:35.452Z,60.93
2018-02-09T03:52:01.218Z,61.77
2018-02-09T03:54:26.982Z,61.47
2018-02-09T03:56:52.722Z,63.40
2018-02-09T03:59:18.487Z,64.03
2018-02-09T04:01:44.248Z,64.70
2018-02-09T04:04:10.012Z,66.60
2018-02-09T04:06:35.759Z,67.13
2018-02-09T04:09:01.520Z,65.90
2018-02-09T04:11:27.278Z,65.50
2018-02-09T04:13:53.047Z,66.80
2018-02-09T04:16:18.793Z,69.23
2018-02-09T04:18:44.555Z,68.37
2018-02-09T04:21:10.315Z,67.27
2018-02-09T04:23:36.095Z,67.60
2018-02-09T04:26:01.846Z,68.20
2018-02-09T04:28:27.611Z,66.47
2018-02-09T04:30:53.371Z,66.67
2018-02-09T04:33:19.136Z,66.33
2018-02-09T04:35:44.887Z,65.67
2018-02-09T04:38:10.659Z,66.33
2018-02-09T04:40:36.420Z,65.33
2018-02-09T04:43:02.186Z,67.03
2018-02-09T04:45:27.983Z,66.43
2018-02-09T04:47:53.723Z,68.10
2018-02-09T04:50:19.495Z,65.53
2018-02-09T04:52:45.246Z,65.13
2018-02-09T04:55:11.070Z,67.50
2018-02-09T04:57:36.794Z,66.20
2018-02-09T05:00:02.586Z,64.40
2018-02-09T05:02:28.338Z,64.00
2018-02-09T05:04:54.108Z,62.70
2018-02-09T05:07:19.860Z,66.10
2018-02-09T05:09:45.638Z,67.07
2018-02-09T05:12:11.400Z,66.33
2018-02-09T05:14:37.162Z,63.70
2018-02-09T05:17:02.923Z,62.17
2018-02-09T05:19:28.683Z,60.70
2018-02-09T05:21:54.472Z,61.23
2018-02-09T05:24:20.217Z,61.47
2018-02-09T05:26:45.967Z,64.70
2018-02-09T05:29:11.730Z,61.73
2018-02-09T05:31:37.475Z,62.37
2018-02-09T05:34:03.247Z,62.07
2018-02-09T05:36:29.021Z,59.60
2018-02-09T05:38:54.761Z,57.77
2018-02-09T05:41:20.575Z,59.70
2018-02-09T05:43:46.288Z,60.83
2018-02-09T05:46:12.039Z,56.23
2018-02-09T05:48:37.782Z,58.07
2018-02-09T05:51:03.546Z,59.53
2018-02-09T05:53:29.285Z,58.97
2018-02-09T05:55:55.055Z,60.03
2018-02-09T05:58:20.805Z,61.00
2018-02-09T06:00:46.573Z,60.60
2018-02-09T06:03:12.320Z,58.90
2018-02-09T06:05:38.079Z,60.67
2018-02-09T06:08:03.818Z,59.43
2018-02-09T06:10:29.582Z,57.67
2018-02-09T06:12:55.335Z,58.60
2018-02-09T06:15:21.110Z,58.43
2018-02-09T06:17:46.865Z,60.40
2018-02-09T06:20:12.614Z,57.93
2018-02-09T06:22:38.370Z,59.53
2018-02-09T06:25:04.118Z,57.53
2018-02-09T06:27:29.881Z,58.53
2018-02-09T06:29:55.631Z,60.70
2018-02-09T06:32:21.404Z,58.10
2018-02-09T06:34:47.156Z,59.40
2018-02-09T06:37:12.930Z,61.90
2018-02-09T06:39:38.710Z,60.27
2018-02-09T06:42:04.502Z,63.87
2018-02-09T06:44:30.249Z,60.07
2018-02-09T06:46:56.002Z,60.97
2018-02-09T06:49:21.767Z,62.60
2018-02-09T06:51:47.507Z,60.30
2018-02-09T06:54:13.277Z,60.60
2018-02-09T06:56:39.035Z,59.93
2018-02-09T06:59:04.790Z,59.63
2018-02-09T07:01:30.558Z,59.00
2018-02-09T07:03:56.339Z,61.13
2018-02-09T07:06:22.097Z,60.30
2018-02-09T07:08:47.886Z,60.00
2018-02-09T07:11:13.639Z,57.30
2018-02-09T07:13:39.386Z,59.70
2018-02-09T07:16:05.173Z,59.10
2018-02-09T07:18:30.932Z,59.03
2018-02-09T07:20:56.702Z,58.47
2018-02-09T07:23:22.454Z,59.10
2018-02-09T07:25:48.230Z,57.00
2018-02-09T07:28:13.992Z,60.93
2018-02-09T07:30:39.747Z,59.13
2018-02-09T07:33:05.495Z,59.30
2018-02-09T07:35:31.266Z,59.50
2018-02-09T07:37:57.082Z,61.53
2018-02-09T07:40:22.820Z,60.77
2018-02-09T07:42:48.568Z,60.23
2018-02-09T07:45:14.330Z,59.70
2018-02-09T07:47:40.077Z,59.20
2018-02-09T07:50:05.847Z,60.23
2018-02-09T07:52:31.588Z,62.27
2018-02-09T07:54:57.351Z,59.70
2018-02-09T07:57:23.110Z,57.73
2018-02-09T07:59:48.882Z,58.97
2018-02-09T08:02:14.634Z,59.27
2018-02-09T08:04:40.383Z,60.77
2018-02-09T08:07:06.142Z,60.77
2018-02-09T08:09:31.905Z,58.97
2018-02-09T08:11:57.670Z,59.23
2018-02-09T08:14:23.418Z,60.87
2018-02-09T08:16:49.175Z,61.33
2018-02-09T08:19:14.922Z,60.03
2018-02-09T08:21:40.692Z,59.27
2018-02-09T08:24:06.438Z,59.13
2018-02-09T08:26:32.195Z,59.37
2018-02-09T08:28:57.937Z,60.73
2018-02-09T08:31:23.707Z,58.97
2018-02-09T08:33:49.454Z,59.93
2018-02-09T08:36:15.210Z,61.07
2018-02-09T08:38:40.951Z,62.03
2018-02-09T08:41:06.720Z,61.53
2018-02-09T08:43:32.472Z,59.87
2018-02-09T08:45:58.228Z,61.80
2018-02-09T08:48:23.962Z,61.60
2018-02-09T08:50:49.729Z,60.77
2018-02-09T08:53:15.489Z,58.10
2018-02-09T08:55:41.243Z,60.50
2018-02-09T08:58:07.014Z,61.20
2018-02-09T09:00:32.755Z,61.13
2018-02-09T09:02:58.542Z,60.50
2018-02-09T09:05:24.295Z,59.10
2018-02-09T09:07:50.078Z,62.07
2018-02-09T09:10:15.842Z,56.97
2018-02-09T09:12:41.628Z,62.37
2018-02-09T09:15:07.405Z,62.50
2018-02-09T09:17:33.164Z,59.53
2018-02-09T09:19:58.957Z,58.77
2018-02-09T09:22:24.705Z,61.57
2018-02-09T09:24:50.473Z,59.80
2018-02-09T09:27:16.210Z,56.63
2018-02-09T09:29:41.969Z,57.67
2018-02-09T09:32:07.737Z,58.17
2018-02-09T09:34:33.503Z,60.00
2018-02-09T09:36:59.244Z,59.23
2018-02-09T09:39:25.052Z,59.07
2018-02-09T09:41:50.776Z,56.23
2018-02-09T09:44:16.534Z,58.67
2018-02-09T09:46:42.278Z,59.57
2018-02-09T09:49:08.027Z,58.90
2018-02-09T09:51:33.762Z,61.13
2018-02-09T09:53:59.742Z,57.47
2018-02-09T09:56:25.487Z,61.03
2018-02-09T09:58:51.230Z,59.70
2018-02-09T10:01:20.809Z,59.47
2018-02-09T10:03:46.558Z,59.08
2018-02-09T10:06:12.314Z,58.27
2018-02-09T10:08:38.074Z,59.03
2018-02-09T10:11:03.830Z,59.60
2018-02-09T10:13:29.595Z,58.80
2018-02-09T10:15:55.352Z,57.97
2018-02-09T10:18:21.114Z,59.10
2018-02-09T10:20:46.859Z,57.47
2018-02-09T10:23:12.618Z,58.60
2018-02-09T10:25:38.384Z,60.27
2018-02-09T10:28:04.155Z,56.07
2018-02-09T10:30:29.903Z,58.53
2018-02-09T10:32:55.670Z,58.90
2018-02-09T10:35:21.419Z,54.33
2018-02-09T10:37:47.184Z,59.33
2018-02-09T10:40:12.925Z,57.67
2018-02-09T10:42:38.677Z,58.20
2018-02-09T10:45:04.436Z,57.07
2018-02-09T10:47:30.190Z,57.30
2018-02-09T10:49:55.938Z,54.23
2018-02-09T10:52:21.690Z,55.40
2018-02-09T10:54:47.446Z,55.17
2018-02-09T10:57:13.199Z,55.57
2018-02-09T10:59:38.958Z,56.90
2018-02-09T11:02:04.702Z,55.77
2018-02-09T11:04:30.462Z,57.67
2018-02-09T11:06:56.229Z,57.87
2018-02-09T11:09:28.150Z,57.93
2018-02-09T11:11:57.945Z,60.65
2018-02-09T11:14:23.742Z,58.00
2018-02-09T11:16:49.510Z,58.87
2018-02-09T11:19:15.266Z,55.57
2018-02-09T11:21:41.026Z,55.50
2018-02-09T11:24:06.790Z,57.80
2018-02-09T11:26:32.560Z,56.43
2018-02-09T11:28:58.338Z,54.53
2018-02-09T11:31:24.103Z,55.83
2018-02-09T11:33:49.866Z,56.03
2018-02-09T11:36:15.650Z,55.43
2018-02-09T11:38:41.409Z,54.17
2018-02-09T11:41:07.172Z,55.37
2018-02-09T11:43:32.943Z,56.30
2018-02-09T11:45:58.708Z,56.53
2018-02-09T11:48:24.463Z,58.60
2018-02-09T11:50:50.232Z,55.17
2018-02-09T11:53:15.982Z,54.87
2018-02-09T11:55:41.743Z,55.33
2018-02-09T11:58:07.511Z,56.40
2018-02-09T12:00:33.279Z,54.03
2018-02-09T12:02:59.038Z,56.53
2018-02-09T12:05:24.807Z,55.00
2018-02-09T12:07:50.558Z,54.73
2018-02-09T12:10:16.339Z,57.23
2018-02-09T12:12:42.088Z,56.50
2018-02-09T12:15:07.857Z,56.73
2018-02-09T12:17:33.636Z,55.13
2018-02-09T12:19:59.420Z,56.73
2018-02-09T12:22:25.165Z,57.50
2018-02-09T12:24:50.927Z,56.37
2018-02-09T12:27:16.683Z,54.87
2018-02-09T12:29:42.434Z,54.77
2018-02-09T12:32:08.177Z,57.43
2018-02-09T12:34:33.935Z,57.37
2018-02-09T12:36:59.698Z,55.27
2018-02-09T12:39:25.459Z,56.83
2018-02-09T12:41:51.235Z,57.27
2018-02-09T12:44:16.998Z,56.23
2018-02-09T12:46:42.774Z,56.83
2018-02-09T12:49:08.534Z,55.40
2018-02-09T12:51:34.336Z,55.27
2018-02-09T12:54:00.099Z,55.10
2018-02-09T12:56:25.858Z,55.03
2018-02-09T12:58:51.636Z,54.63
2018-02-09T13:01:17.370Z,55.73
2018-02-09T13:03:43.182Z,55.43
2018-02-09T13:06:08.974Z,54.27
2018-02-09T13:08:34.723Z,55.87
2018-02-09T13:11:00.459Z,53.97
2018-02-09T13:13:26.218Z,55.67
2018-02-09T13:15:51.950Z,53.97
2018-02-09T13:18:30.036Z,55.13
2018-02-09T13:20:55.778Z,54.13
2018-02-09T13:23:33.989Z,53.77
2018-02-09T13:25:59.733Z,54.45
2018-02-09T13:28:37.847Z,55.77
2018-02-09T13:31:03.599Z,53.67
2018-02-09T13:33:29.358Z,54.27
2018-02-09T13:35:55.098Z,53.60
2018-02-09T13:38:20.850Z,54.30
2018-02-09T13:40:46.602Z,54.10
2018-02-09T13:43:12.377Z,54.60
2018-02-09T13:45:38.137Z,53.40
2018-02-09T13:48:03.907Z,56.43
2018-02-09T13:50:29.662Z,54.83
2018-02-09T13:52:55.426Z,55.23
2018-02-09T13:55:21.242Z,55.53
2018-02-09T13:57:47.002Z,56.77
2018-02-09T14:00:13.562Z,54.22
2018-02-09T14:02:39.312Z,54.80
2018-02-09T14:05:05.066Z,53.30
2018-02-09T14:07:30.810Z,53.80
2018-02-09T14:09:56.568Z,54.40
2018-02-09T14:12:22.314Z,54.67
2018-02-09T14:14:48.075Z,54.73
2018-02-09T14:17:13.833Z,54.27
2018-02-09T14:19:39.581Z,55.87
2018-02-09T14:22:05.334Z,56.13
2018-02-09T14:24:31.098Z,56.07
2018-02-09T14:26:56.852Z,55.50
2018-02-09T14:29:22.602Z,58.17
2018-02-09T14:31:48.335Z,57.03
2018-02-09T14:34:14.082Z,54.53
2018-02-09T14:36:39.861Z,56.70
2018-02-09T14:39:05.625Z,56.60
2018-02-09T14:41:31.395Z,56.50
2018-02-09T14:43:57.256Z,57.80
2018-02-09T14:46:23.075Z,57.63
2018-02-09T14:48:48.909Z,57.03
2018-02-09T14:51:14.688Z,56.93
2018-02-09T14:53:40.559Z,58.53
2018-02-09T14:56:06.339Z,58.17
2018-02-09T14:58:32.148Z,59.07
2018-02-09T15:00:57.927Z,58.13
2018-02-09T15:03:23.704Z,57.97
2018-02-09T15:05:49.704Z,61.10
2018-02-09T15:08:15.455Z,60.25
2018-02-09T15:10:41.324Z,59.00
2018-02-09T15:13:07.333Z,59.30
2018-02-09T15:15:33.106Z,59.75
2018-02-09T15:17:58.981Z,59.20
2018-02-09T15:20:24.779Z,58.97
2018-02-09T15:22:50.745Z,59.50
2018-02-09T15:25:16.556Z,59.27
2018-02-09T15:27:42.378Z,59.10
2018-02-09T15:30:08.183Z,59.17
2018-02-09T15:32:34.055Z,60.80
2018-02-09T15:34:59.912Z,60.07
2018-02-09T15:37:25.700Z,64.67
2018-02-09T15:39:51.516Z,64.57
2018-02-09T15:42:17.320Z,62.57
2018-02-09T15:44:43.091Z,61.80
2018-02-09T15:47:08.855Z,61.63
2018-02-09T15:49:34.596Z,60.80
2018-02-09T15:52:00.389Z,61.80
2018-02-09T15:54:26.148Z,63.40
2018-02-09T15:56:51.894Z,63.80
2018-02-09T15:59:17.676Z,62.93
2018-02-09T16:01:43.447Z,67.53
2018-02-09T16:04:09.212Z,66.83
2018-02-09T16:06:34.976Z,67.67
2018-02-09T16:09:00.762Z,66.80
2018-02-09T16:11:26.518Z,67.60
2018-02-09T16:13:53.532Z,64.40
2018-02-09T16:16:19.291Z,63.08
2018-02-09T16:18:45.067Z,62.60
2018-02-09T16:21:10.822Z,68.43
2018-02-09T16:23:36.608Z,66.93
2018-02-09T16:26:02.377Z,65.50
2018-02-09T16:28:28.142Z,62.67
2018-02-09T16:30:53.897Z,65.03
2018-02-09T16:33:19.654Z,64.83
2018-02-09T16:35:45.427Z,68.07
2018-02-09T16:38:11.169Z,66.93
2018-02-09T16:40:36.943Z,64.00
2018-02-09T16:43:02.844Z,66.47
2018-02-09T16:45:28.755Z,69.43
2018-02-09T16:47:54.546Z,74.17
2018-02-09T16:50:20.334Z,70.33
2018-02-09T16:52:46.102Z,66.97
2018-02-09T16:55:11.910Z,65.30
2018-02-09T16:57:37.688Z,68.30
2018-02-09T17:00:03.512Z,66.40
2018-02-09T17:02:29.285Z,67.93
2018-02-09T17:04:55.058Z,67.00
2018-02-09T17:07:20.850Z,65.57
2018-02-09T17:09:46.630Z,66.43
2018-02-09T17:12:12.384Z,67.30
2018-02-09T17:14:38.127Z,67.20
2018-02-09T17:17:03.895Z,67.23
2018-02-09T17:19:29.643Z,66.43
2018-02-09T17:21:55.418Z,65.43
2018-02-09T17:24:21.182Z,66.63
2018-02-09T17:26:46.976Z,65.93
2018-02-09T17:29:12.774Z,68.67
2018-02-09T17:31:38.613Z,66.83
2018-02-09T17:34:04.378Z,68.90
2018-02-09T17:36:30.195Z,70.57
2018-02-09T17:38:56.006Z,68.97
2018-02-09T17:41:21.802Z,68.67
2018-02-09T17:43:47.562Z,68.53
2018-02-09T17:46:13.310Z,68.27
2018-02-09T17:48:39.094Z,66.97
2018-02-09T17:51:04.925Z,70.63
2018-02-09T17:53:30.773Z,71.50
2018-02-09T17:55:56.624Z,70.97
2018-02-09T17:58:22.366Z,72.33
2018-02-09T18:00:48.159Z,70.43
2018-02-09T18:03:13.961Z,71.53
2018-02-09T18:05:39.722Z,69.10
2018-02-09T18:08:05.495Z,70.27
2018-02-09T18:10:31.241Z,73.33
2018-02-09T18:12:57.012Z,69.07
2018-02-09T18:15:22.814Z,71.33
2018-02-09T18:17:48.627Z,68.17
2018-02-09T18:20:14.399Z,72.37
2018-02-09T18:22:40.214Z,69.23
2018-02-09T18:25:05.999Z,70.67
2018-02-09T18:27:31.766Z,69.57
2018-02-09T18:29:57.509Z,70.67
2018-02-09T18:32:23.288Z,70.80
2018-02-09T18:34:49.064Z,68.33
2018-02-09T18:37:14.818Z,69.40
2018-02-09T18:39:40.573Z,68.83
2018-02-09T18:42:06.401Z,70.97
2018-02-09T18:44:32.258Z,69.97
2018-02-09T18:46:58.038Z,69.17
2018-02-09T18:49:23.848Z,70.10
2018-02-09T18:51:49.634Z,73.07
2018-02-09T18:54:15.404Z,73.70
2018-02-09T18:56:41.171Z,73.00
2018-02-09T18:59:06.945Z,72.03
2018-02-09T19:01:32.722Z,73.20
2018-02-09T19:03:58.606Z,73.97
2018-02-09T19:06:24.420Z,72.37
2018-02-09T19:08:50.234Z,75.80
2018-02-09T19:11:16.022Z,74.20
2018-02-09T19:13:41.815Z,75.73
2018-02-09T19:16:07.591Z,77.63
2018-02-09T19:18:33.346Z,74.73
2018-02-09T19:20:59.102Z,74.53
2018-02-09T19:23:24.875Z,76.43
2018-02-09T19:25:50.650Z,78.47
2018-02-09T19:28:16.410Z,77.90
2018-02-09T19:30:42.190Z,79.13
2018-02-09T19:33:07.951Z,81.90
2018-02-09T19:35:33.710Z,81.30
2018-02-09T19:37:59.463Z,84.43
2018-02-09T19:40:25.231Z,81.27
2018-02-09T19:42:50.982Z,83.47
2018-02-09T19:45:16.774Z,85.87
2018-02-09T19:47:42.531Z,84.30
2018-02-09T19:50:08.310Z,85.77
2018-02-09T19:52:34.074Z,83.70
2018-02-09T19:54:59.838Z,80.00
2018-02-09T19:57:25.591Z,88.53
2018-02-09T19:59:51.342Z,86.90
2018-02-09T20:02:17.105Z,85.93
2018-02-09T20:04:42.855Z,85.33
2018-02-09T20:07:08.623Z,89.07
2018-02-09T20:09:34.379Z,91.13
2018-02-09T20:12:00.152Z,91.20
2018-02-09T20:14:25.903Z,87.43
2018-02-09T20:16:51.658Z,88.33
2018-02-09T20:19:17.417Z,87.60
2018-02-09T20:21:43.171Z,86.07
2018-02-09T20:24:08.930Z,87.00
2018-02-09T20:26:34.691Z,87.67
2018-02-09T20:29:00.434Z,86.90
2018-02-09T20:31:26.195Z,88.07
2018-02-09T20:33:51.934Z,85.07
2018-02-09T20:36:17.689Z,88.57
2018-02-09T20:38:43.430Z,90.80
2018-02-09T20:41:09.182Z,86.53
2018-02-09T20:43:34.955Z,90.00
2018-02-09T20:46:00.707Z,85.70
2018-02-09T20:48:26.467Z,87.93
2018-02-09T20:50:52.232Z,90.20
2018-02-09T20:53:17.993Z,86.20
2018-02-09T20:55:43.750Z,87.80
2018-02-09T20:58:09.509Z,85.10
2018-02-09T21:00:35.258Z,87.80
2018-02-09T21:03:01.014Z,89.67
2018-02-09T21:05:26.758Z,92.47
2018-02-09T21:07:52.515Z,94.00
2018-02-09T21:10:18.278Z,91.73
2018-02-09T21:12:44.047Z,92.13
2018-02-09T21:15:09.801Z,91.43
2018-02-09T21:17:35.563Z,90.70
2018-02-09T21:20:01.327Z,90.90
2018-02-09T21:22:27.082Z,93.07
2018-02-09T21:24:52.842Z,91.27
2018-02-09T21:27:18.611Z,91.27
2018-02-09T21:29:44.366Z,92.67
2018-02-09T21:32:10.163Z,90.40
2018-02-09T21:34:35.917Z,94.23
2018-02-09T21:37:01.668Z,98.47
2018-02-09T21:39:27.417Z,96.33
2018-02-09T21:41:53.166Z,92.83
2018-02-09T21:44:18.932Z,90.40
2018-02-09T21:46:44.666Z,92.43
2018-02-09T21:49:10.426Z,89.33
2018-02-09T21:51:36.194Z,90.27
2018-02-09T21:54:01.966Z,91.53
2018-02-09T21:56:27.714Z,92.47
2018-02-09T21:58:53.461Z,92.70
2018-02-09T22:01:19.215Z,92.23
2018-02-09T22:03:44.970Z,96.53
2018-02-09T22:06:10.734Z,93.63
2018-02-09T22:08:36.491Z,92.57
2018-02-09T22:11:02.234Z,94.73
2018-02-09T22:13:28.011Z,94.57
2018-02-09T22:15:53.750Z,94.70
2018-02-09T22:18:19.517Z,95.33
2018-02-09T22:20:45.281Z,92.33
2018-02-09T22:23:11.039Z,92.60
2018-02-09T22:25:36.815Z,91.77
2018-02-09T22:28:02.568Z,91.90
2018-02-09T22:30:28.326Z,94.43
2018-02-09T22:32:54.078Z,92.90
2018-02-09T22:35:19.867Z,95.00
2018-02-09T22:37:45.630Z,95.20
2018-02-09T22:40:11.415Z,95.10
2018-02-09T22:42:37.182Z,91.50
2018-02-09T22:45:02.946Z,95.10
2018-02-09T22:47:28.691Z,91.13
2018-02-09T22:49:54.457Z,93.83
2018-02-09T22:52:20.218Z,93.43
2018-02-09T22:54:46.003Z,93.37
2018-02-09T22:57:11.762Z,93.47
2018-02-09T22:59:37.677Z,93.83
2018-02-09T23:02:03.422Z,94.67
2018-02-09T23:04:29.287Z,94.03
2018-02-09T23:06:55.060Z,90.20
2018-02-09T23:09:20.814Z,94.37
2018-02-09T23:11:46.583Z,94.50
2018-02-09T23:14:12.341Z,90.47
2018-02-09T23:16:38.137Z,93.00
2018-02-09T23:19:03.886Z,93.90
2018-02-09T23:21:29.661Z,92.43
2018-02-09T23:23:55.417Z,90.50
2018-02-09T23:26:21.202Z,90.57
2018-02-09T23:28:46.979Z,89.87
2018-02-09T23:31:12.756Z,90.53
2018-02-09T23:33:38.649Z,90.27
2018-02-09T23:36:04.538Z,90.80
2018-02-09T23:38:30.281Z,93.20
2018-02-09T23:40:56.046Z,91.57
2018-02-09T23:43:21.787Z,87.20
2018-02-09T23:45:47.551Z,94.70
2018-02-09T23:48:13.290Z,92.03
2018-02-09T23:50:39.066Z,86.80
2018-02-09T23:53:04.827Z,86.07
2018-02-09T23:55:30.598Z,84.87
2018-02-09T23:57:56.334Z,84.03
